Time;durP1;ratioP1;P1;durP2;ratioP2;P2;SDS_P1;SDS_P2;PMS_P1;PMS_P2;Temp;Humidity;BMP_temperature;BMP_pressure;BME280_temperature;BME280_humidity;BME280_pressure;Samples;Min_cycle;Max_cycle;Signal;HPM_P1;HPM_P2
2023/11/01 00:01:32;;;;;;;4.40;4.20;;;;;;;11.01;100.00;99904.38;6036146;23;20030;-78
2023/11/01 00:03:59;;;;;;;5.82;4.90;;;;;;;11.47;100.00;99973.97;6054943;23;20026;-78
2023/11/01 00:06:25;;;;;;;4.50;4.10;;;;;;;11.05;100.00;99892.72;6007603;23;20045;-78
2023/11/01 00:08:52;;;;;;;4.57;4.38;;;;;;;11.22;100.00;99909.94;6051869;23;20053;-78
2023/11/01 00:11:18;;;;;;;4.63;4.43;;;;;;;11.47;100.00;99951.16;6020514;23;20050;-78
2023/11/01 00:13:45;;;;;;;4.55;4.35;;;;;;;11.34;100.00;99927.50;6028232;23;20023;-78
2023/11/01 00:16:11;;;;;;;8.07;5.22;;;;;;;11.09;100.00;99883.69;6029692;23;20145;-78
2023/11/01 00:18:38;;;;;;;5.03;4.65;;;;;;;11.13;100.00;99889.56;6036818;23;20030;-78
2023/11/01 00:21:04;;;;;;;4.40;4.20;;;;;;;11.53;100.00;99953.38;6035244;23;20055;-78
2023/11/01 00:23:31;;;;;;;4.57;4.38;;;;;;;11.57;100.00;99970.63;6061702;23;20022;-78
2023/11/01 00:25:57;;;;;;;5.07;4.88;;;;;;;11.26;100.00;99913.22;5997001;23;20275;-78
2023/11/01 00:28:24;;;;;;;4.55;4.35;;;;;;;10.96;100.00;99881.03;6055046;23;20023;-78
2023/11/01 00:30:50;;;;;;;5.22;4.75;;;;;;;11.51;100.00;99960.53;6031201;23;20019;-78
2023/11/01 00:33:17;;;;;;;4.30;4.10;;;;;;;11.54;100.00;99965.56;6063931;23;20041;-78
2023/11/01 00:35:43;;;;;;;6.80;4.85;;;;;;;10.97;100.00;99866.97;6034582;23;20032;-78
2023/11/01 00:38:10;;;;;;;5.30;4.88;;;;;;;11.26;100.00;99908.78;6038123;23;20491;-78
2023/11/01 00:40:36;;;;;;;4.70;4.50;;;;;;;11.40;100.00;99926.25;6064466;23;20024;-78
2023/11/01 00:43:04;;;;;;;4.20;4.00;;;;;;;11.46;100.00;99938.13;6040746;23;20070;-77
2023/11/01 00:45:30;;;;;;;4.40;4.20;;;;;;;10.83;100.00;99843.44;6061465;23;20034;-77
2023/11/01 00:47:56;;;;;;;4.85;4.65;;;;;;;10.91;100.00;99856.03;6034928;23;20038;-77
2023/11/01 00:50:23;;;;;;;4.75;4.45;;;;;;;11.46;100.00;99944.22;6054558;23;20021;-78
2023/11/01 00:52:49;;;;;;;4.20;4.00;;;;;;;10.63;100.00;99815.06;6001749;23;20251;-78
2023/11/01 00:55:17;;;;;;;4.50;4.30;;;;;;;11.01;100.00;99891.22;6061612;23;20547;-77
2023/11/01 00:57:46;;;;;;;5.47;4.45;;;;;;;11.37;100.00;99956.19;6008460;23;20105;-77
2023/11/01 01:00:13;;;;;;;4.40;4.20;;;;;;;11.03;100.00;99902.47;6061106;23;20025;-78
2023/11/01 01:02:40;;;;;;;4.80;4.38;;;;;;;10.86;100.00;99868.63;6024576;23;20034;-78
2023/11/01 01:05:07;;;;;;;4.53;4.32;;;;;;;11.11;100.00;99931.69;6063714;23;20017;-78
2023/11/01 01:07:33;;;;;;;4.20;4.00;;;;;;;10.64;100.00;99851.66;6026186;23;20078;-78
2023/11/01 01:10:00;;;;;;;5.70;5.20;;;;;;;10.72;100.00;99880.03;6053108;23;20014;-78
2023/11/01 01:12:27;;;;;;;4.30;4.10;;;;;;;10.63;100.00;99857.03;6026683;23;20536;-78
2023/11/01 01:14:53;;;;;;;4.47;4.07;;;;;;;11.14;100.00;99954.25;6055003;23;20093;-78
2023/11/01 01:17:20;;;;;;;4.93;4.45;;;;;;;10.57;100.00;99866.16;6034896;23;20067;-78
2023/11/01 01:19:50;;;;;;;4.50;4.28;;;;;;;11.06;100.00;99941.63;6061754;23;20025;-78
2023/11/01 01:22:17;;;;;;;4.35;4.15;;;;;;;9.96;100.00;99781.75;6041049;23;20037;-77
2023/11/01 01:24:44;;;;;;;4.40;4.20;;;;;;;8.93;100.00;99625.94;6049399;23;20042;-77
2023/11/01 01:27:10;;;;;;;4.57;4.28;;;;;;;9.23;100.00;99670.25;6040101;23;20023;-78
2023/11/01 01:29:37;;;;;;;4.53;4.30;;;;;;;10.03;100.00;99785.69;6060890;23;20460;-78
2023/11/01 01:32:03;;;;;;;4.80;4.60;;;;;;;10.43;100.00;99850.47;6036344;23;20034;-77
2023/11/01 01:34:30;;;;;;;4.97;4.53;;;;;;;10.15;100.00;99792.75;6069580;23;20393;-78
2023/11/01 01:36:57;;;;;;;4.30;4.10;;;;;;;10.60;100.00;99870.34;6027572;23;20022;-77
2023/11/01 01:39:23;;;;;;;4.28;4.07;;;;;;;10.99;100.00;99935.13;6065173;23;20306;-78
2023/11/01 01:41:50;;;;;;;4.97;4.63;;;;;;;10.77;100.00;99907.66;6038558;23;20079;-77
2023/11/01 01:44:17;;;;;;;4.82;4.53;;;;;;;10.14;100.00;99803.31;6030294;23;20440;-78
2023/11/01 01:46:43;;;;;;;5.15;4.75;;;;;;;10.51;100.00;99875.25;6030978;23;20109;-78
2023/11/01 01:49:10;;;;;;;4.50;4.25;;;;;;;10.70;100.00;99882.75;6068571;23;20029;-78
2023/11/01 01:51:38;;;;;;;4.72;4.43;;;;;;;10.99;100.00;99922.00;6031001;23;20417;-78
2023/11/01 01:54:05;;;;;;;5.65;5.18;;;;;;;10.57;100.00;99853.03;6035610;23;20090;-78
2023/11/01 01:56:34;;;;;;;4.55;4.25;;;;;;;10.68;100.00;99882.00;6008439;23;20042;-78
2023/11/01 01:59:01;;;;;;;4.50;4.30;;;;;;;10.05;100.00;99768.06;6067608;23;20018;-77
2023/11/01 02:01:31;;;;;;;4.30;4.10;;;;;;;10.78;100.00;99888.38;6051065;23;20030;-78
2023/11/01 02:04:10;;;;;;;5.25;4.95;;;;;;;10.25;100.00;99794.78;6034466;23;20498;-78
2023/11/01 02:06:36;;;;;;;4.40;4.20;;;;;;;10.42;100.00;99814.69;6046755;23;20103;-78
2023/11/01 02:09:05;;;;;;;4.50;4.15;;;;;;;10.34;100.00;99815.19;6038811;23;20076;-78
2023/11/01 02:11:35;;;;;;;4.75;4.43;;;;;;;10.97;100.00;99905.50;6029765;23;20027;-78
2023/11/01 02:14:02;;;;;;;5.32;4.93;;;;;;;10.96;100.00;99903.81;6059828;23;20197;-78
2023/11/01 02:16:28;;;;;;;4.57;4.38;;;;;;;10.85;100.00;99894.03;6041550;23;20034;-77
2023/11/01 02:18:57;;;;;;;4.30;4.10;;;;;;;10.38;100.00;99800.91;6053894;23;21813;-77
2023/11/01 02:21:23;;;;;;;4.25;4.05;;;;;;;10.24;100.00;99779.97;6034668;23;20242;-78
2023/11/01 02:23:51;;;;;;;5.10;4.72;;;;;;;11.01;100.00;99914.88;6057494;23;20029;-78
2023/11/01 02:26:17;;;;;;;4.50;4.30;;;;;;;10.92;100.00;99886.59;6061084;23;20139;-78
2023/11/01 02:28:44;;;;;;;4.50;4.30;;;;;;;10.45;100.00;99804.00;6066180;23;20494;-79
2023/11/01 02:31:11;;;;;;;4.57;4.38;;;;;;;10.74;100.00;99858.00;6035902;23;20404;-79
2023/11/01 02:33:38;;;;;;;4.63;4.32;;;;;;;10.45;100.00;99812.69;6066366;23;20229;-78
2023/11/01 02:36:05;;;;;;;5.15;4.90;;;;;;;10.04;100.00;99742.78;6029477;23;20027;-77
2023/11/01 02:38:31;;;;;;;4.43;4.22;;;;;;;10.35;100.00;99796.72;6061724;23;20075;-77
2023/11/01 02:40:58;;;;;;;6.00;4.30;;;;;;;10.66;100.00;99830.59;6037815;23;20087;-77
2023/11/01 02:43:24;;;;;;;4.57;4.38;;;;;;;10.75;100.00;99841.31;6065545;23;20006;-77
2023/11/01 02:45:53;;;;;;;4.35;4.15;;;;;;;10.73;100.00;99842.38;6014454;23;20014;-77
2023/11/01 02:48:19;;;;;;;5.18;4.88;;;;;;;11.05;100.00;99894.50;6066858;23;20023;-77
2023/11/01 02:50:46;;;;;;;4.30;4.10;;;;;;;10.65;100.00;99840.25;6035843;23;20022;-78
2023/11/01 02:53:13;;;;;;;4.85;4.65;;;;;;;10.70;100.00;99824.19;6057771;23;20040;-78
2023/11/01 02:55:41;;;;;;;9.40;4.82;;;;;;;11.01;100.00;99883.34;6038259;23;20031;-79
2023/11/01 02:58:07;;;;;;;4.70;4.50;;;;;;;11.09;100.00;99881.06;6068845;23;20050;-78
2023/11/01 03:00:33;;;;;;;4.55;4.22;;;;;;;10.61;100.00;99807.28;6008978;23;20034;-78
2023/11/01 03:03:00;;;;;;;4.50;4.20;;;;;;;10.51;100.00;99793.94;6035844;23;20171;-78
2023/11/01 03:05:27;;;;;;;4.30;4.10;;;;;;;10.13;100.00;99731.72;6035080;23;20188;-78
2023/11/01 03:07:55;;;;;;;4.63;4.38;;;;;;;10.91;100.00;99856.88;6060285;23;20029;-78
2023/11/01 03:10:21;;;;;;;5.40;4.90;;;;;;;10.67;100.00;99819.16;6020851;23;20428;-77
2023/11/01 03:12:48;;;;;;;4.88;4.57;;;;;;;10.32;100.00;99765.47;6038216;23;20347;-77
2023/11/01 03:15:14;;;;;;;4.93;4.53;;;;;;;10.38;100.00;99769.44;6031099;23;20026;-79
2023/11/01 03:17:42;;;;;;;7.85;4.65;;;;;;;10.82;100.00;99854.03;6042891;23;20031;-77
2023/11/01 03:20:10;;;;;;;4.95;4.75;;;;;;;10.48;100.00;99780.16;6053799;23;20102;-77
2023/11/01 03:22:38;;;;;;;4.63;4.35;;;;;;;10.47;100.00;99794.25;6036445;23;20066;-77
2023/11/01 03:25:05;;;;;;;4.35;4.15;;;;;;;10.75;100.00;99825.56;6054356;23;20216;-78
2023/11/01 03:27:31;;;;;;;5.00;4.60;;;;;;;10.83;100.00;99855.72;6034178;23;20097;-78
2023/11/01 03:29:57;;;;;;;5.45;5.15;;;;;;;10.71;100.00;99829.34;6055567;23;20389;-78
2023/11/01 03:32:26;;;;;;;6.95;4.20;;;;;;;10.57;100.00;99801.38;6028665;23;20090;-78
2023/11/01 03:34:53;;;;;;;4.68;4.45;;;;;;;10.86;100.00;99843.19;6038381;23;20279;-78
2023/11/01 03:37:20;;;;;;;4.30;4.10;;;;;;;10.36;100.00;99761.69;6032809;23;20060;-78
2023/11/01 03:39:46;;;;;;;4.80;4.50;;;;;;;10.57;100.00;99797.94;6068745;23;20024;-78
2023/11/01 03:42:13;;;;;;;4.50;4.30;;;;;;;9.41;100.00;99608.03;6008476;23;20463;-79
2023/11/01 03:44:39;;;;;;;4.85;4.28;;;;;;;10.57;100.00;99809.25;6065234;23;20040;-77
2023/11/01 03:47:06;;;;;;;4.60;4.30;;;;;;;10.44;100.00;99784.78;6034920;23;20058;-78
2023/11/01 03:49:32;;;;;;;5.07;4.70;;;;;;;10.24;100.00;99754.59;6039162;23;20175;-77
2023/11/01 03:52:01;;;;;;;4.88;4.65;;;;;;;10.96;100.00;99859.19;6033873;23;20098;-78
2023/11/01 03:54:33;;;;;;;4.68;4.45;;;;;;;10.15;100.00;99742.94;6041507;23;20426;-78
2023/11/01 03:57:02;;;;;;;4.40;4.20;;;;;;;11.00;100.00;99863.28;6023387;23;20460;-79
2023/11/01 03:59:29;;;;;;;4.90;4.60;;;;;;;10.40;100.00;99766.72;6057100;23;20026;-78
2023/11/01 04:01:56;;;;;;;4.72;4.50;;;;;;;10.83;100.00;99835.56;6037837;23;20031;-79
2023/11/01 04:04:22;;;;;;;4.70;4.50;;;;;;;10.93;100.00;99855.00;6067423;23;20022;-78
2023/11/01 04:06:49;;;;;;;5.00;4.60;;;;;;;10.71;100.00;99812.75;6039979;23;20062;-77
2023/11/01 04:09:15;;;;;;;6.25;4.68;;;;;;;10.95;100.00;99834.72;6011503;23;20034;-77
2023/11/01 04:11:41;;;;;;;5.13;4.63;;;;;;;10.33;100.00;99729.59;6068712;23;20030;-76
2023/11/01 04:14:10;;;;;;;5.75;5.45;;;;;;;10.38;100.00;99732.72;6042153;23;20011;-78
2023/11/01 04:16:37;;;;;;;4.80;4.50;;;;;;;10.64;100.00;99785.22;6059880;23;20251;-76
2023/11/01 04:19:03;;;;;;;4.82;4.30;;;;;;;10.94;100.00;99833.06;6027981;23;20070;-76
2023/11/01 04:21:30;;;;;;;5.32;4.82;;;;;;;10.91;100.00;99814.88;6041818;23;20328;-78
2023/11/01 04:23:56;;;;;;;5.50;5.07;;;;;;;10.97;100.00;99830.22;6035964;23;20022;-79
2023/11/01 04:26:23;;;;;;;4.85;4.53;;;;;;;10.14;100.00;99698.47;6050902;23;21031;-78
2023/11/01 04:28:49;;;;;;;5.07;4.78;;;;;;;10.68;100.00;99784.91;6017872;23;20026;-77
2023/11/01 04:31:17;;;;;;;6.07;4.50;;;;;;;11.10;100.00;99848.59;6040331;23;20291;-78
2023/11/01 04:33:43;;;;;;;4.63;4.32;;;;;;;10.33;100.00;99732.22;6029268;23;20506;-79
2023/11/01 04:36:10;;;;;;;6.20;5.80;;;;;;;10.95;100.00;99823.38;6035230;23;20384;-78
2023/11/01 04:38:37;;;;;;;5.45;5.00;;;;;;;10.89;100.00;99808.88;6006600;23;20030;-78
2023/11/01 04:41:11;;;;;;;5.18;4.53;;;;;;;11.16;100.00;99836.81;6062976;23;20096;-77
2023/11/01 04:43:37;;;;;;;4.85;4.55;;;;;;;10.64;100.00;99774.75;6057018;23;20065;-77
2023/11/01 04:46:05;;;;;;;5.40;5.10;;;;;;;7.35;100.00;99229.78;6071389;23;20025;-79
2023/11/01 04:48:32;;;;;;;4.80;4.60;;;;;;;9.84;100.00;99644.50;6024800;23;20023;-77
2023/11/01 04:51:01;;;;;;;4.78;4.50;;;;;;;10.50;100.00;99736.31;6049479;23;20027;-77
2023/11/01 04:53:31;;;;;;;5.28;4.82;;;;;;;10.71;100.00;99765.53;6024593;23;20022;-78
2023/11/01 04:55:57;;;;;;;4.80;4.60;;;;;;;10.78;100.00;99782.50;6075420;23;20548;-78
2023/11/01 04:58:25;;;;;;;4.50;4.30;;;;;;;10.88;100.00;99788.00;6030164;23;20053;-78
2023/11/01 05:00:51;;;;;;;8.20;4.82;;;;;;;10.81;100.00;99792.81;6069797;23;20030;-78
2023/11/01 05:03:17;;;;;;;5.13;4.82;;;;;;;10.57;100.00;99737.59;6013077;23;20168;-78
2023/11/01 05:05:44;;;;;;;4.80;4.60;;;;;;;10.46;100.00;99719.94;6043438;23;20023;-77
2023/11/01 05:08:11;;;;;;;5.32;4.88;;;;;;;11.16;100.00;99844.69;6077152;23;20022;-80
2023/11/01 05:10:38;;;;;;;5.55;5.15;;;;;;;10.96;100.00;99807.53;6021800;23;20061;-78
2023/11/01 05:13:05;;;;;;;4.93;4.63;;;;;;;11.18;100.00;99832.31;6058038;23;20041;-78
2023/11/01 05:15:36;;;;;;;5.57;5.07;;;;;;;10.56;100.00;99728.03;6039226;23;20364;-79
2023/11/01 05:18:03;;;;;;;7.55;5.18;;;;;;;10.95;100.00;99790.09;6037276;23;20400;-80
2023/11/01 05:20:30;;;;;;;6.47;4.70;;;;;;;10.77;100.00;99778.22;6068229;23;20423;-78
2023/11/01 05:22:56;;;;;;;4.60;4.15;;;;;;;11.18;100.00;99829.69;6041303;23;20018;-79
2023/11/01 05:25:25;;;;;;;5.57;5.13;;;;;;;10.73;100.00;99759.22;6051973;23;20026;-78
2023/11/01 05:27:55;;;;;;;;;;;;;;;11.16;100.00;99823.69;6018332;23;20232;-79
2023/11/01 05:30:22;;;;;;;4.90;4.50;;;;;;;10.46;100.00;99716.47;6052089;23;19954;-79
2023/11/01 05:32:48;;;;;;;5.80;4.28;;;;;;;11.11;100.00;99821.41;6044766;23;20206;-78
2023/11/01 05:35:15;;;;;;;4.68;4.38;;;;;;;10.83;100.00;99779.59;6071061;23;20018;-77
2023/11/01 05:37:44;;;;;;;4.75;4.22;;;;;;;10.40;100.00;99709.84;6021764;23;20436;-80
2023/11/01 05:40:14;;;;;;;4.88;4.57;;;;;;;10.41;100.00;99705.47;6040516;23;20161;-78
2023/11/01 05:42:44;;;;;;;4.95;4.70;;;;;;;11.09;100.00;99817.19;6041961;23;20401;-78
2023/11/01 05:45:17;;;;;;;4.13;3.92;;;;;;;10.51;100.00;99732.75;6064547;23;20484;-77
2023/11/01 05:47:49;;;;;;;4.63;4.38;;;;;;;10.78;100.00;99786.00;6039733;23;20571;-78
2023/11/01 05:50:25;;;;;;;4.32;4.10;;;;;;;10.34;100.00;99726.00;6049491;23;20276;-77
2023/11/01 05:52:53;;;;;;;5.55;5.18;;;;;;;9.76;100.00;99646.78;6038796;23;20037;-80
2023/11/01 05:55:20;;;;;;;4.90;4.60;;;;;;;9.89;100.00;99673.88;6066106;23;20036;-77
2023/11/01 05:57:59;;;;;;;4.88;4.65;;;;;;;10.57;100.00;99787.44;6041779;23;20091;-77
2023/11/01 06:00:25;;;;;;;4.70;4.47;;;;;;;10.65;100.00;99795.63;6048671;23;20022;-78
2023/11/01 06:02:52;;;;;;;4.78;4.47;;;;;;;10.76;100.00;99832.50;6046708;23;20074;-78
2023/11/01 06:05:22;;;;;;;5.57;5.18;;;;;;;10.42;100.00;99768.28;6074524;23;20094;-80
2023/11/01 06:07:50;;;;;;;5.00;4.70;;;;;;;10.29;100.00;99752.50;6008299;23;20042;-76
2023/11/01 06:10:17;;;;;;;15.02;4.78;;;;;;;10.61;100.00;99804.66;6011896;23;20039;-79
2023/11/01 06:12:44;;;;;;;4.30;4.10;;;;;;;10.51;100.00;99798.34;6036687;23;20058;-77
2023/11/01 06:15:11;;;;;;;4.55;4.25;;;;;;;10.64;100.00;99811.47;6029569;23;20093;-77
2023/11/01 06:17:38;;;;;;;5.80;4.18;;;;;;;9.40;100.00;99601.09;6062094;23;20076;-79
2023/11/01 06:20:06;;;;;;;4.90;4.63;;;;;;;10.81;100.00;99828.72;6040265;23;20097;-77
2023/11/01 06:22:32;;;;;;;4.40;4.10;;;;;;;10.47;100.00;99787.22;6062056;23;20428;-79
2023/11/01 06:25:00;;;;;;;4.40;4.20;;;;;;;10.54;100.00;99806.00;6029407;23;20031;-78
2023/11/01 06:27:26;;;;;;;5.40;4.22;;;;;;;10.45;100.00;99789.09;6010947;23;20089;-77
2023/11/01 06:29:53;;;;;;;7.60;4.25;;;;;;;10.77;100.00;99836.78;6032876;23;20515;-77
2023/11/01 06:32:19;;;;;;;4.40;4.20;;;;;;;10.49;100.00;99797.59;6032555;23;20323;-78
2023/11/01 06:34:46;;;;;;;4.40;4.15;;;;;;;10.00;100.00;99715.09;6035558;23;20046;-78
2023/11/01 06:37:12;;;;;;;4.00;3.80;;;;;;;10.27;100.00;99759.63;6008154;23;20637;-78
2023/11/01 06:39:39;;;;;;;4.20;4.00;;;;;;;9.91;100.00;99700.00;6073111;23;20405;-78
2023/11/01 06:42:06;;;;;;;4.90;4.63;;;;;;;10.47;100.00;99796.88;6030172;23;20030;-76
2023/11/01 06:44:32;;;;;;;4.65;4.45;;;;;;;10.19;100.00;99756.69;6057296;23;20110;-75
2023/11/01 06:46:59;;;;;;;4.30;4.10;;;;;;;10.14;100.00;99737.78;6028879;23;20044;-78
2023/11/01 06:49:25;;;;;;;4.35;3.92;;;;;;;10.31;100.00;99770.81;6062257;23;20218;-75
2023/11/01 06:51:54;;;;;;;4.47;4.28;;;;;;;10.46;100.00;99782.88;6009368;23;20098;-76
2023/11/01 06:54:21;;;;;;;4.10;3.90;;;;;;;10.39;100.00;99776.38;6034127;23;21068;-77
2023/11/01 06:56:47;;;;;;;4.25;4.00;;;;;;;10.68;100.00;99820.81;6067353;23;20394;-77
2023/11/01 06:59:14;;;;;;;5.20;4.85;;;;;;;10.67;100.00;99814.75;6010695;23;20028;-80
2023/11/01 07:01:41;;;;;;;3.80;3.70;;;;;;;10.44;100.00;99776.06;6039108;23;20265;-79
2023/11/01 07:04:08;;;;;;;4.82;4.63;;;;;;;10.11;100.00;99710.00;6014727;23;20082;-76
2023/11/01 07:06:34;;;;;;;4.20;4.00;;;;;;;10.83;100.00;99816.34;6044050;23;20037;-76
2023/11/01 07:09:01;;;;;;;6.25;4.13;;;;;;;10.82;100.00;99810.22;6040328;23;20046;-77
2023/11/01 07:11:29;;;;;;;4.82;4.40;;;;;;;10.29;100.00;99712.34;6032638;23;20018;-77
2023/11/01 07:13:55;;;;;;;4.75;4.55;;;;;;;11.18;100.00;99869.06;6040543;23;20092;-75
2023/11/01 07:16:21;;;;;;;5.05;4.75;;;;;;;10.85;100.00;99778.53;6025000;23;20054;-77
2023/11/01 07:18:48;;;;;;;4.70;4.40;;;;;;;11.23;100.00;99838.09;6029972;23;20082;-77
2023/11/01 07:21:14;;;;;;;5.18;4.78;;;;;;;11.43;100.00;99860.38;6039729;23;20026;-78
2023/11/01 07:23:41;;;;;;;4.60;4.30;;;;;;;11.51;100.00;99858.03;6027562;23;20094;-76
2023/11/01 07:26:07;;;;;;;5.25;5.03;;;;;;;10.95;100.00;99752.50;6055894;23;20084;-77
2023/11/01 07:28:34;;;;;;;5.05;4.30;;;;;;;10.73;100.00;99692.78;6028843;23;20030;-77
2023/11/01 07:31:01;;;;;;;4.95;4.55;;;;;;;11.69;100.00;99834.06;6063043;23;20069;-78
2023/11/01 07:33:28;;;;;;;4.80;4.50;;;;;;;11.74;100.00;99829.31;6034858;23;20038;-75
2023/11/01 07:35:55;;;;;;;7.20;5.45;;;;;;;11.65;100.00;99817.66;6051012;23;20019;-78
2023/11/01 07:38:21;;;;;;;4.38;4.18;;;;;;;11.17;100.00;99715.94;6033291;23;20031;-75
2023/11/01 07:40:48;;;;;;;7.70;4.57;;;;;;;11.30;100.00;99722.94;6026747;23;20034;-77
2023/11/01 07:43:14;;;;;;;4.63;4.32;;;;;;;11.75;100.00;99788.94;6005300;23;20088;-78
2023/11/01 07:45:41;;;;;;;4.57;4.30;;;;;;;11.68;100.00;99756.16;6043190;23;20049;-76
2023/11/01 07:48:08;;;;;;;6.18;4.95;;;;;;;11.88;100.00;99779.19;6028250;23;20048;-75
2023/11/01 07:50:37;;;;;;;4.40;4.20;;;;;;;11.76;100.00;99740.66;6055811;23;20522;-77
2023/11/01 07:53:04;;;;;;;5.05;4.57;;;;;;;12.03;100.00;99784.31;6004427;23;20034;-75
2023/11/01 07:55:31;;;;;;;4.60;4.40;;;;;;;12.22;100.00;99787.28;6040940;23;20357;-75
2023/11/01 07:57:57;;;;;;;5.13;4.82;;;;;;;11.31;100.00;99640.56;6024849;23;20026;-76
2023/11/01 08:00:24;;;;;;;4.10;3.90;;;;;;;12.29;100.00;99785.06;6056539;23;20039;-77
2023/11/01 08:02:53;;;;;;;4.90;4.60;;;;;;;12.11;100.00;99742.53;6018061;23;20030;-77
2023/11/01 08:05:20;;;;;;;5.13;4.72;;;;;;;12.35;100.00;99774.09;6061638;23;20208;-76
2023/11/01 08:07:47;;;;;;;4.72;4.45;;;;;;;11.94;100.00;99672.78;6029676;23;20088;-76
2023/11/01 08:10:13;;;;;;;4.75;4.50;;;;;;;12.10;100.00;99686.47;6061309;23;20816;-77
2023/11/01 08:12:40;;;;;;;4.70;4.38;;;;;;;12.21;100.00;99683.03;6035561;23;20019;-77
2023/11/01 08:15:07;;;;;;;4.88;4.57;;;;;;;12.27;100.00;99668.59;6002611;23;20023;-76
2023/11/01 08:17:34;;;;;;;4.55;4.35;;;;;;;12.47;100.00;99683.69;6032561;23;20336;-78
2023/11/01 08:20:00;;;;;;;5.22;5.03;;;;;;;12.09;100.00;99620.84;6025761;23;20022;-77
2023/11/01 08:22:28;;;;;;;4.95;4.65;;;;;;;12.64;100.00;99685.03;6001990;23;20054;-77
2023/11/01 08:24:55;;;;;;;8.63;5.00;;;;;;;12.61;100.00;99658.94;6035113;23;20018;-77
2023/11/01 08:27:21;;;;;;;4.72;4.43;;;;;;;12.98;100.00;99703.47;6028817;23;20061;-78
2023/11/01 08:29:48;;;;;;;4.88;4.45;;;;;;;12.67;100.00;99624.25;6024851;23;20460;-75
2023/11/01 08:32:14;;;;;;;4.85;4.65;;;;;;;12.42;100.00;99563.94;6022618;23;20045;-77
2023/11/01 08:34:41;;;;;;;5.15;4.75;;;;;;;12.61;100.00;99579.13;6048018;23;20047;-77
2023/11/01 08:37:09;;;;;;;4.22;4.03;;;;;;;13.20;100.00;99660.47;6023188;23;20046;-76
2023/11/01 08:39:36;;;;;;;4.57;4.32;;;;;;;12.98;100.00;99613.91;6053063;23;20022;-78
2023/11/01 08:42:02;;;;;;;5.30;5.00;;;;;;;12.79;100.00;99575.06;6022419;23;20060;-76
2023/11/01 08:44:31;;;;;;;4.78;4.47;;;;;;;12.55;100.00;99510.25;6026362;23;20031;-76
2023/11/01 08:47:04;;;;;;;5.15;4.70;;;;;;;12.87;100.00;99556.84;6052641;23;20018;-76
2023/11/01 08:49:31;;;;;;;5.47;5.07;;;;;;;13.21;100.00;99598.91;6001881;23;20269;-76
2023/11/01 08:51:57;;;;;;;5.47;5.18;;;;;;;12.69;100.00;99506.50;6054052;23;20106;-76
2023/11/01 08:54:24;;;;;;;5.32;5.00;;;;;;;13.27;100.00;99606.31;6018389;23;20218;-76
2023/11/01 08:56:51;;;;;;;10.13;5.20;;;;;;;13.43;100.00;99618.28;6027759;23;20073;-76
2023/11/01 08:59:18;;;;;;;5.15;4.72;;;;;;;13.11;100.00;99554.03;6058879;23;20026;-76
2023/11/01 09:01:46;;;;;;;5.25;4.93;;;;;;;12.56;100.00;99469.78;6034651;23;20041;-75
2023/11/01 09:04:13;;;;;;;4.78;4.57;;;;;;;13.29;100.00;99566.66;6058146;23;20296;-78
2023/11/01 09:06:40;;;;;;;5.18;4.88;;;;;;;13.27;100.00;99569.44;6016716;23;20034;-77
2023/11/01 09:09:07;;;;;;;4.60;4.40;;;;;;;13.51;100.00;99603.53;6024235;23;20022;-77
2023/11/01 09:11:33;;;;;;;5.10;4.80;;;;;;;13.24;100.00;99547.78;6028014;23;20027;-78
2023/11/01 09:14:00;;;;;;;5.50;5.20;;;;;;;13.74;100.00;99591.06;6054419;23;20207;-78
2023/11/01 09:16:26;;;;;;;4.90;4.70;;;;;;;13.80;100.00;99588.91;6001291;23;20073;-76
2023/11/01 09:18:53;;;;;;;5.38;5.00;;;;;;;13.76;100.00;99578.59;6053418;23;20011;-76
2023/11/01 09:21:19;;;;;;;5.30;5.00;;;;;;;13.12;100.00;99487.22;6028318;23;20104;-77
2023/11/01 09:23:46;;;;;;;5.13;4.75;;;;;;;12.87;100.00;99411.19;6053123;23;20015;-77
2023/11/01 09:26:15;;;;;;;4.80;4.60;;;;;;;13.57;100.00;99523.09;6016446;23;20019;-76
2023/11/01 09:28:42;;;;;;;5.10;4.80;;;;;;;13.79;100.00;99548.50;6025934;23;20373;-76
2023/11/01 09:31:08;;;;;;;5.32;4.88;;;;;;;13.42;100.00;99480.41;6026604;23;20056;-76
2023/11/01 09:33:35;;;;;;;7.32;4.82;;;;;;;13.53;100.00;99504.06;6053327;23;20396;-78
2023/11/01 09:36:02;;;;;;;5.40;5.10;;;;;;;13.61;100.00;99532.44;6024164;23;20030;-76
2023/11/01 09:38:28;;;;;;;5.78;5.28;;;;;;;13.09;100.00;99453.25;6054448;23;20013;-77
2023/11/01 09:40:56;;;;;;;4.80;4.50;;;;;;;13.39;100.00;99499.13;6015909;23;20106;-77
2023/11/01 09:43:24;;;;;;;10.32;9.82;;;;;;;13.26;100.00;99490.53;6026908;23;20244;-76
2023/11/01 09:45:51;;;;;;;6.05;4.60;;;;;;;13.42;100.00;99509.38;5983953;23;20286;-77
2023/11/01 09:48:17;;;;;;;5.30;4.90;;;;;;;13.41;100.00;99507.72;6033332;23;20027;-77
2023/11/01 09:50:46;;;;;;;4.80;4.60;;;;;;;12.96;100.00;99423.59;6057301;23;20079;-77
2023/11/01 09:53:13;;;;;;;4.88;4.65;;;;;;;13.60;100.00;99527.28;5999498;23;20511;-77
2023/11/01 09:55:39;;;;;;;4.90;4.65;;;;;;;12.96;100.00;99413.88;6060900;23;20124;-77
2023/11/01 09:58:08;;;;;;;5.28;5.07;;;;;;;13.62;100.00;99491.91;6030725;23;20049;-76
2023/11/01 10:00:35;;;;;;;4.78;4.50;;;;;;;13.66;100.00;99479.31;6061347;23;20028;-77
2023/11/01 10:03:02;;;;;;;4.82;4.47;;;;;;;13.43;100.00;99425.88;6027202;23;20192;-77
2023/11/01 10:05:28;;;;;;;4.70;4.40;;;;;;;13.80;100.00;99447.31;6052414;23;20038;-76
2023/11/01 10:07:56;;;;;;;4.72;4.53;;;;;;;13.76;100.00;99423.00;6021864;23;20023;-76
2023/11/01 10:10:25;;;;;;;4.78;4.50;;;;;;;13.99;100.00;99435.19;6026685;23;20022;-77
2023/11/01 10:12:52;;;;;;;6.50;4.57;;;;;;;13.97;100.00;99411.56;6017935;23;20026;-76
2023/11/01 10:15:20;;;;;;;4.80;4.60;;;;;;;13.96;100.00;99383.53;6018109;23;20094;-77
2023/11/01 10:17:47;;;;;;;4.68;4.40;;;;;;;13.98;100.00;99362.31;6052078;23;20038;-77
2023/11/01 10:20:29;;;;;;;4.60;4.40;;;;;;;13.83;100.00;99317.84;6031497;23;20023;-77
2023/11/01 10:22:56;;;;;;;4.65;4.45;;;;;;;13.28;100.00;99209.31;6057768;23;20026;-78
2023/11/01 10:25:23;;;;;;;4.70;4.40;;;;;;;13.95;100.00;99279.84;6015006;23;20393;-77
2023/11/01 10:27:51;;;;;;;5.03;4.47;;;;;;;13.53;100.00;99205.38;6067512;23;20044;-77
2023/11/01 10:30:18;;;;;;;4.60;4.30;;;;;;;14.22;100.00;99290.72;6041547;23;20202;-77
2023/11/01 10:32:55;;;;;;;4.50;4.30;;;;;;;14.26;100.00;99281.53;6066776;23;20025;-77
2023/11/01 10:35:21;;;;;;;4.60;4.40;;;;;;;13.81;100.00;99184.47;6013201;23;20519;-76
2023/11/01 10:37:58;;;;;;;4.90;4.60;;;;;;;14.14;100.00;99238.63;6060935;23;20049;-77
2023/11/01 10:40:26;;;;;;;5.15;4.90;;;;;;;14.11;100.00;99213.34;6014560;23;20365;-77
2023/11/01 10:42:54;;;;;;;4.90;4.55;;;;;;;14.36;100.00;99248.06;6066264;23;20053;-77
2023/11/01 10:45:24;;;;;;;4.63;4.43;;;;;;;14.35;100.00;99244.59;6037369;23;20033;-76
2023/11/01 10:47:51;;;;;;;4.55;4.35;;;;;;;14.24;100.00;99218.34;6063003;23;20374;-76
2023/11/01 10:50:19;;;;;;;4.50;4.30;;;;;;;14.50;100.00;99172.88;6031222;23;20336;-77
2023/11/01 10:52:48;;;;;;;13.95;5.57;;;;;;;14.53;100.00;99122.44;6036429;23;20218;-78
2023/11/01 10:55:20;;;;;;;4.75;4.55;;;;;;;14.68;100.00;99109.63;6032692;23;20213;-77
2023/11/01 10:57:51;;;;;;;4.60;4.40;;;;;;;14.77;100.00;99103.47;6052065;23;20043;-75
2023/11/01 11:00:37;;;;;;;4.82;4.63;;;;;;;14.59;100.00;99086.75;6002452;23;20204;-76
2023/11/01 11:03:28;;;;;;;4.78;4.53;;;;;;;14.62;100.00;99097.03;6057052;23;20082;-76
2023/11/01 11:05:56;;;;;;;5.43;5.13;;;;;;;13.53;100.00;98942.66;6024193;23;20085;-77
2023/11/01 11:08:23;;;;;;;4.80;4.50;;;;;;;14.61;100.00;99108.53;6059281;23;20064;-76
2023/11/01 11:10:50;;;;;;;5.00;4.70;;;;;;;14.23;100.00;99073.34;6035678;23;20280;-76
2023/11/01 11:13:16;;;;;;;4.47;4.28;;;;;;;14.62;100.00;99124.25;6063901;23;20514;-77
2023/11/01 11:15:46;;;;;;;7.95;5.03;;;;;;;14.78;100.00;99128.91;6033428;23;20076;-77
2023/11/01 11:18:20;;;;;;;12.35;4.60;;;;;;;14.11;100.00;99031.34;6053969;23;20030;-76
2023/11/01 11:20:51;;;;;;;4.97;4.57;;;;;;;14.41;100.00;99060.25;6031264;23;20086;-77
2023/11/01 11:23:21;;;;;;;5.30;5.00;;;;;;;14.74;100.00;99099.31;6031846;23;20359;-77
2023/11/01 11:25:50;;;;;;;6.10;4.70;;;;;;;14.41;100.00;99045.22;6067698;23;20061;-76
2023/11/01 11:28:22;;;;;;;4.88;4.53;;;;;;;14.84;100.00;99096.63;6036301;23;20038;-76